Time;durP1;ratioP1;P1;durP2;ratioP2;P2;SDS_P1;SDS_P2;PMS_P1;PMS_P2;Temp;Humidity;BMP_temperature;BMP_pressure;BME280_temperature;BME280_humidity;BME280_pressure;Samples;Min_cycle;Max_cycle;Signal;HPM_P1;HPM_P2
2024/02/16 00:00:18;;;;;;;14.13;5.40;;;;;;;9.21;72.67;98445.41;4922873;28;104277;-62
2024/02/16 00:02:47;;;;;;;13.25;5.97;;;;;;;9.27;72.41;98441.25;4927718;28;103248;-62
2024/02/16 00:05:16;;;;;;;13.13;5.03;;;;;;;9.48;71.58;98442.56;4931672;28;102758;-62
2024/02/16 00:07:44;;;;;;;14.27;5.18;;;;;;;9.45;71.45;98439.25;4935210;28;102916;-62
2024/02/16 00:10:13;;;;;;;8.75;4.18;;;;;;;9.58;71.10;98443.22;4929070;28;104631;-62
2024/02/16 00:12:41;;;;;;;12.38;5.13;;;;;;;9.53;71.42;98434.97;4927901;28;103002;-62
2024/02/16 00:15:11;;;;;;;9.15;4.90;;;;;;;9.43;71.71;98433.34;4936734;28;103060;-62
2024/02/16 00:17:39;;;;;;;13.40;5.07;;;;;;;9.39;72.20;98434.66;4929516;28;102812;-62
2024/02/16 00:20:10;;;;;;;11.73;4.93;;;;;;;9.52;71.56;98449.16;4925485;28;103296;-62
2024/02/16 00:22:40;;;;;;;13.32;5.80;;;;;;;9.50;71.62;98440.56;4931243;28;103273;-62
2024/02/16 00:25:09;;;;;;;10.05;4.85;;;;;;;9.60;71.43;98430.66;4932044;28;102704;-62
2024/02/16 00:27:38;;;;;;;10.73;5.05;;;;;;;9.61;71.14;98435.75;4933292;28;103956;-62
2024/02/16 00:30:10;;;;;;;14.95;5.05;;;;;;;9.47;71.72;98436.44;4930490;28;103203;-63
2024/02/16 00:32:38;;;;;;;12.40;5.28;;;;;;;9.56;71.76;98439.91;4927543;28;103338;-62
2024/02/16 00:39:43;;;;;;;14.52;6.53;;;;;;;9.14;73.03;98436.47;4929362;28;102860;-62
2024/02/16 00:42:11;;;;;;;13.38;6.05;;;;;;;9.02;73.81;98428.06;4925841;28;104107;-62
2024/02/16 00:44:39;;;;;;;12.27;5.63;;;;;;;8.96;73.63;98433.97;4930048;28;104513;-61
2024/02/16 00:47:10;;;;;;;14.63;5.60;;;;;;;8.97;73.60;98425.06;4927435;28;104065;-62
2024/02/16 00:49:38;;;;;;;12.90;6.15;;;;;;;9.12;73.47;98431.34;4928746;28;102765;-62
2024/02/16 00:52:06;;;;;;;12.07;4.97;;;;;;;9.11;73.22;98421.78;4925477;28;103325;-63
2024/02/16 00:54:34;;;;;;;13.40;5.82;;;;;;;9.03;73.81;98423.63;4929639;28;103262;-63
2024/02/16 00:57:04;;;;;;;13.75;4.97;;;;;;;8.95;74.21;98424.44;4928379;28;102620;-63
2024/02/16 00:59:32;;;;;;;16.75;5.85;;;;;;;9.05;73.70;98418.97;4931896;28;102637;-61
2024/02/16 01:02:00;;;;;;;15.85;5.97;;;;;;;9.10;73.37;98421.94;4922938;28;104137;-62
2024/02/16 01:04:29;;;;;;;17.05;6.45;;;;;;;9.09;73.32;98422.94;4928987;28;103322;-62
2024/02/16 01:06:58;;;;;;;16.13;5.93;;;;;;;9.10;73.21;98421.94;4924755;28;102579;-62
2024/02/16 01:09:26;;;;;;;13.40;4.45;;;;;;;9.33;72.71;98424.75;4943285;28;102835;-62
2024/02/16 01:11:54;;;;;;;15.52;5.13;;;;;;;9.34;72.32;98421.13;4929886;28;104033;-62
2024/02/16 01:14:24;;;;;;;9.77;4.05;;;;;;;9.51;71.94;98435.13;4930386;28;103203;-62
2024/02/16 01:16:52;;;;;;;11.27;4.63;;;;;;;9.56;71.50;98431.97;4922923;28;102812;-62
2024/02/16 01:19:20;;;;;;;14.00;4.70;;;;;;;9.61;71.58;98434.94;4932425;28;102682;-63
2024/02/16 01:21:52;;;;;;;11.43;4.38;;;;;;;9.56;71.86;98435.47;4930582;28;103207;-62
2024/02/16 01:24:20;;;;;;;16.77;5.25;;;;;;;9.42;71.96;98430.84;4923946;28;103284;-62
2024/02/16 01:26:49;;;;;;;14.65;5.63;;;;;;;9.42;71.99;98429.03;4925554;28;102757;-62
2024/02/16 01:29:17;;;;;;;10.93;4.95;;;;;;;9.25;72.74;98424.75;4945147;28;102887;-62
2024/02/16 01:31:46;;;;;;;11.70;5.30;;;;;;;9.33;72.58;98422.09;4926679;28;104324;-62
2024/02/16 01:34:14;;;;;;;13.35;6.30;;;;;;;9.26;72.67;98431.69;4928544;28;103288;-62
2024/02/16 01:36:42;;;;;;;14.98;5.55;;;;;;;9.23;72.62;98426.75;4927128;28;102699;-63
2024/02/16 01:39:10;;;;;;;13.57;5.40;;;;;;;9.34;72.37;98418.47;4931552;28;102882;-63
2024/02/16 01:41:40;;;;;;;12.90;5.68;;;;;;;9.29;72.77;98418.16;4924466;28;104344;-63
2024/02/16 01:44:08;;;;;;;12.32;5.38;;;;;;;9.40;72.05;98423.06;4923821;28;103013;-63
2024/02/16 01:46:36;;;;;;;13.05;6.40;;;;;;;9.43;72.05;98420.13;4924115;28;102713;-63
2024/02/16 01:49:07;;;;;;;13.98;6.10;;;;;;;9.22;72.33;98411.88;4925523;28;102795;-63
2024/02/16 01:51:36;;;;;;;14.88;6.43;;;;;;;9.24;72.63;98420.47;4930290;28;103364;-63
2024/02/16 01:54:04;;;;;;;15.10;5.97;;;;;;;9.45;71.64;98417.28;4924831;28;103403;-63
2024/02/16 01:56:33;;;;;;;12.57;6.35;;;;;;;9.39;71.64;98413.50;4926649;28;102648;-63
2024/02/16 01:59:01;;;;;;;13.85;5.38;;;;;;;9.57;71.13;98421.22;4924144;28;102918;-63
2024/02/16 02:01:29;;;;;;;15.38;6.20;;;;;;;9.71;70.76;98422.38;4929619;28;103963;-62
2024/02/16 02:08:32;;;;;;;12.50;5.80;;;;;;;9.69;70.75;98411.13;4924025;28;102756;-62
2024/02/16 02:11:00;;;;;;;16.23;6.35;;;;;;;9.28;72.09;98400.63;4931706;28;104215;-62
2024/02/16 02:13:29;;;;;;;17.17;6.60;;;;;;;9.30;72.37;98414.50;4928264;28;103226;-61
2024/02/16 02:16:01;;;;;;;19.73;5.75;;;;;;;9.55;71.39;98411.81;4924817;28;103965;-60
2024/02/16 02:18:32;;;;;;;12.68;6.00;;;;;;;9.58;71.14;98403.56;4932269;28;102811;-60
2024/02/16 02:21:00;;;;;;;15.68;6.68;;;;;;;9.45;71.54;98402.25;4933951;28;102577;-60
2024/02/16 02:23:29;;;;;;;17.60;6.57;;;;;;;9.58;71.24;98401.72;4928845;28;103898;-61
2024/02/16 02:25:57;;;;;;;13.50;6.80;;;;;;;9.66;70.96;98397.44;4927147;28;103338;-61
2024/02/16 02:28:25;;;;;;;16.38;6.85;;;;;;;9.67;70.90;98402.53;4933422;28;102780;-61
2024/02/16 02:30:55;;;;;;;12.45;5.50;;;;;;;9.63;71.19;98394.13;4926726;28;102733;-61
2024/02/16 02:33:24;;;;;;;10.93;5.78;;;;;;;9.79;71.03;98395.88;4926013;28;103223;-61
2024/02/16 02:35:52;;;;;;;13.40;5.53;;;;;;;9.83;71.04;98388.44;4933506;28;103250;-62
2024/02/16 02:38:20;;;;;;;12.02;6.20;;;;;;;9.39;72.57;98386.25;4923613;28;103223;-61
2024/02/16 02:40:50;;;;;;;19.23;6.25;;;;;;;9.39;72.67;98392.38;4926880;28;103914;-61
2024/02/16 02:43:18;;;;;;;14.20;6.78;;;;;;;9.47;72.63;98394.16;4929017;28;103430;-61
2024/02/16 02:45:49;;;;;;;17.08;7.18;;;;;;;9.52;72.26;98383.91;4944577;28;105055;-62
2024/02/16 02:48:18;;;;;;;13.40;5.95;;;;;;;9.62;72.13;98381.06;4924069;28;103142;-62
2024/02/16 02:50:46;;;;;;;16.38;5.82;;;;;;;9.56;72.36;98381.75;4926111;28;104206;-61
2024/02/16 02:53:14;;;;;;;11.38;6.03;;;;;;;9.52;72.66;98375.97;4928172;28;103467;-61
2024/02/16 02:55:41;;;;;;;12.52;5.97;;;;;;;9.56;72.36;98381.75;4927317;28;103352;-61
2024/02/16 02:58:11;;;;;;;13.23;6.60;;;;;;;9.50;72.43;98377.13;4927248;28;102573;-61
2024/02/16 03:00:39;;;;;;;17.15;6.40;;;;;;;9.39;72.74;98378.31;4927679;28;104202;-61
2024/02/16 03:03:07;;;;;;;15.85;5.53;;;;;;;9.45;72.52;98375.81;4926550;28;104228;-61
2024/02/16 03:05:35;;;;;;;12.02;6.18;;;;;;;9.49;72.67;98367.56;4924322;28;103229;-61
2024/02/16 03:08:04;;;;;;;17.80;7.55;;;;;;;9.40;72.49;98362.28;4931778;28;104472;-62
2024/02/16 03:10:34;;;;;;;12.80;6.40;;;;;;;9.28;73.18;98358.34;4931555;28;102704;-63
2024/02/16 03:13:02;;;;;;;16.67;6.00;;;;;;;9.19;73.41;98364.66;4932395;28;103750;-61
2024/02/16 03:15:32;;;;;;;13.20;6.20;;;;;;;9.12;73.79;98354.75;4931227;28;103248;-61
2024/02/16 03:18:00;;;;;;;17.48;5.93;;;;;;;9.25;73.04;98359.50;4929738;28;102701;-61
2024/02/16 03:20:30;;;;;;;12.50;5.57;;;;;;;9.38;72.70;98364.28;4926701;28;103642;-61
2024/02/16 03:23:00;;;;;;;19.00;6.50;;;;;;;9.38;72.61;98359.00;4928438;28;104399;-62
2024/02/16 03:25:28;;;;;;;15.10;4.70;;;;;;;9.55;72.19;98366.88;4927166;28;104315;-61
2024/02/16 03:27:56;;;;;;;16.48;5.38;;;;;;;9.60;72.44;98361.91;4934211;28;104782;-61
2024/02/16 03:30:24;;;;;;;12.07;5.15;;;;;;;9.66;71.72;98366.50;4930059;28;103649;-62
2024/02/16 03:32:53;;;;;;;14.70;4.93;;;;;;;9.69;71.64;98371.44;4931854;28;103223;-61
2024/02/16 03:35:24;;;;;;;14.63;5.68;;;;;;;9.57;72.30;98370.19;4928196;28;103222;-61
2024/02/16 03:37:52;;;;;;;10.07;4.75;;;;;;;9.63;72.12;98366.88;4928522;28;102680;-61
2024/02/16 03:40:20;;;;;;;13.52;6.00;;;;;;;9.44;72.66;98376.81;4933823;28;102777;-61
2024/02/16 03:42:48;;;;;;;12.95;6.25;;;;;;;9.33;73.24;98382.47;4927350;28;103359;-61
2024/02/16 03:45:16;;;;;;;11.68;5.05;;;;;;;9.49;72.75;98383.44;4933795;28;104282;-62
2024/02/16 03:47:44;;;;;;;10.43;4.90;;;;;;;9.51;72.52;98384.06;4925316;28;102850;-60
2024/02/16 03:50:14;;;;;;;12.02;5.50;;;;;;;9.49;72.54;98378.16;4926195;28;103245;-61
2024/02/16 03:52:43;;;;;;;14.55;5.95;;;;;;;9.22;73.38;98381.00;4926542;28;103255;-61
2024/02/16 03:55:11;;;;;;;16.40;6.53;;;;;;;8.97;73.91;98393.38;4928839;28;103241;-60
2024/02/16 03:57:41;;;;;;;20.15;6.22;;;;;;;8.98;73.75;98392.41;4930011;28;102834;-60
2024/02/16 04:04:44;;;;;;;10.45;4.93;;;;;;;9.29;72.90;98391.72;4927687;28;104693;-60
2024/02/16 04:07:14;;;;;;;17.70;6.70;;;;;;;9.07;73.45;98386.13;4926788;28;103194;-62
2024/02/16 04:09:42;;;;;;;21.55;7.05;;;;;;;8.86;74.75;98385.81;4920679;28;102727;-63
2024/02/16 04:12:10;;;;;;;14.75;6.47;;;;;;;9.09;74.26;98384.16;4925286;28;103591;-63
2024/02/16 04:14:38;;;;;;;11.43;5.78;;;;;;;9.06;73.88;98384.47;4922833;28;103256;-63
2024/02/16 04:21:30;;;;;;;12.30;5.53;;;;;;;9.03;74.24;98398.00;4932521;28;103955;-63
2024/02/16 04:23:59;;;;;;;12.70;5.43;;;;;;;9.13;73.66;98381.97;4927990;28;102703;-62
2024/02/16 04:26:27;;;;;;;16.17;5.32;;;;;;;9.21;73.46;98394.34;4927229;28;104646;-63
2024/02/16 04:28:55;;;;;;;15.32;6.25;;;;;;;9.24;73.40;98394.03;4929000;28;103266;-63
2024/02/16 04:31:23;;;;;;;14.23;5.55;;;;;;;9.31;72.83;98395.00;4933779;28;102609;-63
2024/02/16 04:33:52;;;;;;;14.45;5.80;;;;;;;9.31;72.64;98395.00;4930952;28;102792;-63
2024/02/16 04:36:21;;;;;;;11.63;5.35;;;;;;;9.36;72.47;98391.88;4928704;28;103136;-62
2024/02/16 04:38:49;;;;;;;11.88;5.03;;;;;;;9.46;72.38;98398.63;4929040;28;103391;-63
2024/02/16 04:41:21;;;;;;;11.93;5.40;;;;;;;9.49;71.84;98407.22;4928659;28;102761;-63
2024/02/16 04:43:49;;;;;;;9.57;4.93;;;;;;;9.55;71.73;98402.09;4926491;28;103759;-63
2024/02/16 04:46:17;;;;;;;15.32;5.38;;;;;;;9.46;72.20;98406.56;4927521;28;103171;-63
2024/02/16 04:48:45;;;;;;;13.25;5.22;;;;;;;9.54;72.02;98399.63;4929235;28;103202;-63
2024/02/16 04:51:13;;;;;;;11.05;5.05;;;;;;;9.48;72.13;98405.56;4931001;28;102726;-64
2024/02/16 04:53:41;;;;;;;11.60;4.85;;;;;;;9.43;72.17;98404.25;4928033;28;102766;-64
2024/02/16 04:56:09;;;;;;;11.88;5.25;;;;;;;9.55;72.01;98409.16;4930945;28;103283;-62
2024/02/16 04:58:42;;;;;;;10.05;4.72;;;;;;;9.53;71.87;98408.53;4909938;28;103204;-60
2024/02/16 05:01:10;;;;;;;12.02;5.32;;;;;;;9.49;71.87;98409.88;4909605;28;104993;-61
2024/02/16 05:03:41;;;;;;;12.48;5.53;;;;;;;9.43;72.16;98409.53;4920973;28;102813;-61
2024/02/16 05:06:09;;;;;;;12.40;5.75;;;;;;;9.43;71.86;98406.91;4920043;28;103443;-61
2024/02/16 05:08:37;;;;;;;9.25;5.18;;;;;;;9.56;71.66;98402.91;4920802;28;103205;-61
2024/02/16 05:11:07;;;;;;;12.05;5.55;;;;;;;9.44;71.78;98405.06;4908934;28;104779;-61
2024/02/16 05:13:38;;;;;;;9.68;4.88;;;;;;;9.53;71.62;98408.53;4915922;28;103040;-61
2024/02/16 05:16:11;;;;;;;13.77;4.95;;;;;;;9.51;71.54;98415.78;4912014;28;103685;-61
2024/02/16 05:18:40;;;;;;;10.70;4.50;;;;;;;9.60;71.19;98414.78;4922169;28;103233;-62
2024/02/16 05:21:10;;;;;;;14.30;5.28;;;;;;;9.55;71.34;98415.31;4922679;28;103049;-62
2024/02/16 05:23:39;;;;;;;10.57;4.80;;;;;;;9.61;71.10;98416.44;4921054;28;103227;-62
2024/02/16 05:26:06;;;;;;;18.02;5.40;;;;;;;9.51;71.01;98416.63;4921293;28;103881;-62
2024/02/16 05:28:35;;;;;;;11.77;5.18;;;;;;;9.54;71.06;98421.56;4915130;28;103273;-62
2024/02/16 05:31:17;;;;;;;14.18;5.93;;;;;;;9.44;71.05;98419.09;4922565;28;102764;-63
2024/02/16 05:33:45;;;;;;;10.70;4.80;;;;;;;9.50;71.14;98414.13;4922291;28;102725;-62
2024/02/16 05:36:18;;;;;;;10.57;4.72;;;;;;;9.53;70.83;98424.41;4918458;28;103097;-60
2024/02/16 05:38:46;;;;;;;10.70;4.63;;;;;;;9.46;71.00;98425.06;4904018;28;104324;-61
2024/02/16 05:41:14;;;;;;;14.57;5.05;;;;;;;9.57;70.86;98428.34;4923432;28;102868;-61
2024/02/16 05:43:44;;;;;;;10.57;4.90;;;;;;;9.50;70.84;98420.25;4926039;28;102880;-60
2024/02/16 05:46:15;;;;;;;12.75;5.70;;;;;;;9.41;70.88;98422.09;4917323;28;103278;-60
2024/02/16 05:53:27;;;;;;;9.82;4.97;;;;;;;9.24;71.46;98431.84;4905204;28;102817;-60
2024/02/16 05:55:55;;;;;;;13.13;5.10;;;;;;;9.34;70.89;98436.97;4915043;28;104033;-61
2024/02/16 05:58:25;;;;;;;15.05;4.75;;;;;;;9.42;70.70;98428.22;4911352;28;103149;-60
2024/02/16 06:00:54;;;;;;;12.95;5.38;;;;;;;9.55;70.47;98432.97;4893617;28;103223;-60
2024/02/16 06:03:24;;;;;;;11.65;5.45;;;;;;;9.48;70.11;98432.81;4925897;28;104153;-60
2024/02/16 06:05:52;;;;;;;16.17;5.10;;;;;;;9.31;71.00;98431.19;4911785;28;103253;-61
2024/02/16 06:08:20;;;;;;;16.10;5.40;;;;;;;9.27;70.71;98451.84;4921755;28;103667;-61
2024/02/16 06:10:53;;;;;;;12.50;4.57;;;;;;;9.42;70.65;98450.19;4921175;28;103171;-60
2024/02/16 06:13:22;;;;;;;11.13;4.50;;;;;;;9.29;70.11;98444.59;4924680;28;102847;-60
2024/02/16 06:15:51;;;;;;;13.48;5.40;;;;;;;9.31;70.35;98453.16;4918284;28;104110;-61
2024/02/16 06:18:19;;;;;;;15.60;4.60;;;;;;;9.39;70.54;98454.97;4920695;28;103275;-61
2024/02/16 06:20:49;;;;;;;18.02;5.88;;;;;;;9.16;70.75;98454.78;4917885;28;104200;-61
2024/02/16 06:23:18;;;;;;;12.00;5.18;;;;;;;9.28;70.63;98456.13;4920774;28;102765;-61
2024/02/16 06:25:46;;;;;;;10.15;4.93;;;;;;;9.36;69.98;98455.31;4903704;28;104190;-61
2024/02/16 06:28:14;;;;;;;12.85;5.65;;;;;;;9.35;69.82;98462.38;4922813;28;103897;-61
2024/02/16 06:30:42;;;;;;;10.45;4.88;;;;;;;9.32;70.32;98465.38;4922578;28;104105;-61
2024/02/16 06:33:10;;;;;;;19.60;5.78;;;;;;;9.02;71.22;98459.75;4913849;28;104476;-61
2024/02/16 06:35:40;;;;;;;16.35;5.85;;;;;;;8.98;71.47;98469.00;4921814;28;102746;-61
2024/02/16 06:38:10;;;;;;;15.80;5.68;;;;;;;9.06;70.57;98466.34;4939490;28;103268;-61
2024/02/16 06:40:38;;;;;;;16.45;5.07;;;;;;;9.16;70.89;98471.50;4922398;28;102961;-61
2024/02/16 06:43:06;;;;;;;14.93;5.40;;;;;;;9.23;70.53;98469.00;4923107;28;103092;-62
2024/02/16 06:45:34;;;;;;;8.55;4.53;;;;;;;9.25;70.35;98482.91;4920474;28;103036;-62
2024/02/16 06:48:05;;;;;;;14.70;5.45;;;;;;;9.16;70.37;98476.78;4908080;28;103566;-61
2024/02/16 06:50:33;;;;;;;12.13;4.90;;;;;;;9.26;70.68;98484.53;4915051;28;103164;-61
2024/02/16 06:53:01;;;;;;;11.55;5.00;;;;;;;9.33;70.23;98484.69;4932225;28;103341;-62
2024/02/16 06:55:30;;;;;;;14.65;5.32;;;;;;;9.43;70.07;98483.56;4928161;28;102754;-62
2024/02/16 06:57:58;;;;;;;15.70;5.50;;;;;;;9.45;70.13;98481.56;4920642;28;104021;-62
2024/02/16 07:00:26;;;;;;;10.63;4.50;;;;;;;9.52;69.68;98481.72;4923582;28;103407;-62
2024/02/16 07:02:55;;;;;;;10.63;4.78;;;;;;;9.55;69.75;98491.13;4922432;28;102705;-61
2024/02/16 07:05:23;;;;;;;12.85;5.28;;;;;;;9.58;69.73;98502.22;4918796;28;103687;-61
2024/02/16 07:07:51;;;;;;;10.82;5.10;;;;;;;9.62;69.91;98503.53;4913882;28;103356;-61
2024/02/16 07:10:24;;;;;;;13.48;6.43;;;;;;;9.51;69.55;98506.53;4912347;28;103225;-62
2024/02/16 07:12:56;;;;;;;12.75;5.15;;;;;;;9.53;69.59;98514.28;4923894;28;102972;-63
2024/02/16 07:15:47;;;;;;;10.85;5.05;;;;;;;9.63;69.46;98514.94;4916993;28;102752;-63
2024/02/16 07:23:36;;;;;;;10.40;4.57;;;;;;;9.86;69.06;98508.94;4911289;28;103633;-63
2024/02/16 07:26:04;;;;;;;11.48;5.22;;;;;;;9.81;69.27;98521.84;4921816;28;103365;-63
2024/02/16 07:28:38;;;;;;;14.52;4.97;;;;;;;9.79;68.70;98516.75;4920452;28;102949;-62
2024/02/16 07:31:07;;;;;;;11.68;4.43;;;;;;;9.91;68.29;98511.91;4924261;28;103996;-62
2024/02/16 07:33:36;;;;;;;10.95;4.70;;;;;;;9.99;68.57;98519.84;4921154;28;103276;-61
2024/02/16 07:36:05;;;;;;;16.38;5.63;;;;;;;9.79;68.61;98524.66;4918006;28;102757;-62
2024/02/16 07:38:34;;;;;;;12.10;4.63;;;;;;;9.76;69.00;98525.84;4916488;28;103010;-62
2024/02/16 07:41:02;;;;;;;12.25;4.65;;;;;;;9.82;68.96;98531.44;4919345;28;106500;-62
2024/02/16 07:43:36;;;;;;;8.98;4.55;;;;;;;9.90;68.06;98534.91;4917914;28;104632;-62
2024/02/16 07:46:08;;;;;;;8.88;4.07;;;;;;;9.89;68.70;98529.78;4919421;28;102688;-62
2024/02/16 07:48:42;;;;;;;14.48;5.43;;;;;;;9.73;69.05;98527.97;4923029;28;103910;-63
2024/02/16 07:51:11;;;;;;;;;;;;;;;9.76;68.80;98528.47;4935605;28;104212;-63
2024/02/16 07:53:41;;;;;;;10.40;5.30;;;;;;;9.76;68.47;98532.91;4921119;28;102923;-62
2024/02/16 07:56:10;;;;;;;11.68;4.57;;;;;;;9.73;69.23;98530.63;4919259;28;103785;-63
2024/02/16 07:58:38;;;;;;;16.08;5.75;;;;;;;9.55;69.50;98530.78;4924365;28;103136;-61
2024/02/16 08:01:07;;;;;;;16.67;7.68;;;;;;;9.42;70.00;98534.75;4899619;28;103229;-62
2024/02/16 08:03:35;;;;;;;19.42;5.97;;;;;;;9.46;70.32;98530.78;4900068;28;103215;-62
2024/02/16 08:06:04;;;;;;;10.48;4.65;;;;;;;9.60;69.86;98531.13;4900212;28;103837;-62
2024/02/16 08:08:33;;;;;;;13.02;5.88;;;;;;;9.76;69.26;98531.13;4897723;28;103290;-63
2024/02/16 08:11:03;;;;;;;13.75;6.00;;;;;;;10.24;67.92;98530.34;4893817;28;103113;-62
2024/02/16 08:13:32;;;;;;;13.10;5.32;;;;;;;10.95;65.49;98525.09;4895228;28;104333;-63
2024/02/16 08:16:00;;;;;;;14.48;4.90;;;;;;;11.81;64.00;98532.09;4897375;28;103162;-63
2024/02/16 08:18:32;;;;;;;12.00;5.10;;;;;;;12.18;62.01;98536.56;4894207;28;102910;-63
2024/02/16 08:21:03;;;;;;;12.02;4.82;;;;;;;12.49;61.45;98537.41;4919116;28;103223;-62
2024/02/16 08:23:32;;;;;;;11.25;5.05;;;;;;;12.56;62.12;98530.31;4911959;28;103077;-62
2024/02/16 08:26:00;;;;;;;11.25;4.25;;;;;;;13.10;60.21;98534.44;4921838;28;102786;-67
2024/02/16 08:28:39;;;;;;;15.27;4.95;;;;;;;13.24;59.83;98538.88;4916935;28;104080;-65
2024/02/16 08:31:47;;;;;;;16.48;4.97;;;;;;;13.50;58.03;98534.84;4926172;28;103186;-65
2024/02/16 08:34:16;;;;;;;14.68;4.57;;;;;;;14.19;57.85;98540.50;4918722;28;103385;-65
2024/02/16 08:36:45;;;;;;;10.85;4.30;;;;;;;14.38;56.17;98531.81;4924222;28;103249;-65
2024/02/16 08:39:13;;;;;;;9.55;4.00;;;;;;;14.53;56.12;98534.34;4922889;28;104258;-65
2024/02/16 08:41:43;;;;;;;9.57;4.18;;;;;;;14.76;54.60;98533.22;4916333;28;105191;-65
2024/02/16 08:44:11;;;;;;;8.27;3.90;;;;;;;14.42;55.28;98537.53;4931645;28;104255;-65
2024/02/16 08:46:39;;;;;;;8.63;3.92;;;;;;;14.72;55.90;98542.63;4926132;28;102928;-64
2024/02/16 08:49:09;;;;;;;7.82;3.83;;;;;;;14.10;56.12;98539.81;4920925;28;102986;-65
2024/02/16 08:51:39;;;;;;;10.70;3.88;;;;;;;13.88;56.09;98541.72;4923658;28;103237;-66
2024/02/16 08:54:07;;;;;;;13.07;4.20;;;;;;;13.81;57.07;98546.16;4923373;28;103256;-65
2024/02/16 08:56:40;;;;;;;17.48;4.05;;;;;;;13.53;56.67;98546.94;4923201;28;103341;-65
2024/02/16 08:59:08;;;;;;;14.68;4.45;;;;;;;13.53;57.22;98539.81;4921781;28;102683;-65
2024/02/16 09:01:40;;;;;;;10.90;3.97;;;;;;;14.20;54.54;98544.78;4900775;28;105661;-65
2024/02/16 09:04:08;;;;;;;12.88;4.72;;;;;;;15.02;53.25;98543.16;4919751;28;103142;-65
2024/02/16 09:06:36;;;;;;;9.77;4.20;;;;;;;15.51;52.99;98535.03;4907050;28;103227;-65
2024/02/16 09:09:07;;;;;;;11.43;5.03;;;;;;;15.92;52.12;98536.72;4932840;28;103715;-65
2024/02/16 09:11:35;;;;;;;13.15;4.60;;;;;;;15.97;51.67;98538.75;4923855;28;105335;-65
2024/02/16 09:14:07;;;;;;;11.95;4.90;;;;;;;15.98;50.48;98541.25;4921398;28;104286;-65
2024/02/16 09:16:35;;;;;;;11.63;3.80;;;;;;;15.98;51.19;98543.09;4921735;28;102723;-66
2024/02/16 09:19:03;;;;;;;9.38;3.92;;;;;;;16.59;50.24;98541.94;4919867;28;103217;-66
2024/02/16 09:21:31;;;;;;;9.25;4.20;;;;;;;17.26;48.57;98536.28;4923987;28;103333;-66
2024/02/16 09:24:01;;;;;;;10.57;3.88;;;;;;;17.21;48.81;98530.75;4917344;28;103274;-66
2024/02/16 09:26:33;;;;;;;11.23;3.95;;;;;;;16.81;51.02;98533.59;4923836;28;102855;-65
2024/02/16 09:29:01;;;;;;;6.82;3.33;;;;;;;17.19;49.74;98535.53;4920667;28;103152;-66
2024/02/16 09:31:29;;;;;;;13.45;4.80;;;;;;;17.37;47.79;98540.97;4912330;28;104689;-65
2024/02/16 09:33:58;;;;;;;10.27;3.83;;;;;;;17.49;47.63;98545.59;4913550;28;104029;-66
2024/02/16 09:36:26;;;;;;;9.75;3.30;;;;;;;17.56;48.43;98549.06;4929595;28;102697;-67
2024/02/16 09:38:54;;;;;;;8.65;3.47;;;;;;;17.07;47.35;98548.75;4917230;28;102862;-65
2024/02/16 09:41:23;;;;;;;12.50;4.05;;;;;;;16.76;48.16;98555.66;4918879;28;103865;-63
2024/02/16 09:43:54;;;;;;;8.63;2.80;;;;;;;16.84;49.23;98555.41;4926147;28;103243;-62
2024/02/16 09:46:24;;;;;;;8.13;3.00;;;;;;;16.65;48.38;98562.47;4925477;28;102783;-63
2024/02/16 09:48:59;;;;;;;8.40;2.50;;;;;;;16.68;48.32;98567.41;4921876;28;103157;-63
2024/02/16 09:51:30;;;;;;;8.50;2.92;;;;;;;16.54;46.97;98579.16;4924733;28;104131;-63
2024/02/16 09:54:00;;;;;;;5.30;2.45;;;;;;;16.78;48.81;98576.81;4913360;28;103597;-63
2024/02/16 09:56:28;;;;;;;5.38;2.58;;;;;;;16.93;48.54;98585.44;4893103;28;102808;-63
2024/02/16 09:58:58;;;;;;;5.70;2.53;;;;;;;17.20;48.27;98582.63;4921475;28;104333;-63
2024/02/16 10:01:28;;;;;;;9.23;2.55;;;;;;;17.10;48.02;98579.63;4907673;28;105537;-64
2024/02/16 10:04:06;;;;;;;8.27;2.25;;;;;;;16.59;47.37;98582.03;4904667;28;103418;-64
2024/02/16 11:49:29;;;;;;;10.03;1.60;;;;;;;16.70;48.98;98613.47;4873773;28;102651;-73
2024/02/16 11:51:57;;;;;;;4.57;1.73;;;;;;;16.55;49.30;98608.34;4874220;28;102826;-73
2024/02/16 11:54:25;;;;;;;4.65;1.90;;;;;;;17.07;49.03;98605.75;4870536;28;102989;-73
2024/02/16 11:56:53;;;;;;;3.08;1.40;;;;;;;17.44;48.85;98612.38;4857902;28;103247;-77
2024/02/16 11:59:22;;;;;;;4.47;1.48;;;;;;;17.44;48.19;98607.03;4858511;28;103201;-76
2024/02/16 12:01:54;;;;;;;6.15;1.67;;;;;;;17.46;48.33;98607.63;4875602;28;102834;-75
2024/02/16 12:04:24;;;;;;;4.78;1.67;;;;;;;17.11;48.29;98606.16;4890152;28;101766;-69
2024/02/16 12:06:57;;;;;;;2.65;1.30;;;;;;;17.01;48.78;98611.94;4890953;28;102182;-71
2024/02/16 12:09:31;;;;;;;7.65;2.35;;;;;;;17.21;47.70;98611.03;4877408;28;103599;-77
2024/02/16 12:11:59;;;;;;;4.75;1.60;;;;;;;17.24;47.63;98608.78;4875210;28;103706;-75
2024/02/16 12:14:27;;;;;;;7.70;1.70;;;;;;;17.19;47.83;98610.47;4867108;28;102777;-76
2024/02/16 12:16:57;;;;;;;6.32;1.75;;;;;;;17.02;48.69;98610.13;4867791;28;103901;-69
2024/02/16 12:19:26;;;;;;;4.25;1.33;;;;;;;17.41;48.49;98619.00;4864622;28;103753;-73
2024/02/16 12:21:57;;;;;;;4.03;1.60;;;;;;;17.53;48.46;98608.41;4866157;28;102740;-74
2024/02/16 12:24:26;;;;;;;6.03;2.20;;;;;;;16.84;48.93;98616.91;4858256;28;102857;-72
2024/02/16 12:26:54;;;;;;;6.03;1.70;;;;;;;16.80;50.30;98610.34;4866607;28;103527;-71
2024/02/16 12:29:22;;;;;;;7.85;1.85;;;;;;;16.82;50.75;98610.13;4865358;28;103123;-72
2024/02/16 12:31:50;;;;;;;6.13;1.90;;;;;;;16.90;50.49;98617.97;4867098;28;102923;-70
2024/02/16 12:34:18;;;;;;;11.43;2.53;;;;;;;16.68;50.27;98620.06;4866221;28;103700;-69
2024/02/16 12:36:46;;;;;;;10.80;2.70;;;;;;;16.64;51.33;98621.53;4865033;28;103336;-70
2024/02/16 12:39:19;;;;;;;8.50;2.10;;;;;;;16.65;51.52;98621.31;4862878;28;103953;-68
2024/02/16 12:41:48;;;;;;;5.63;2.15;;;;;;;16.87;51.10;98618.34;4863876;28;102841;-69
2024/02/16 12:44:16;;;;;;;6.28;2.08;;;;;;;16.65;51.82;98626.66;4864876;28;103748;-71
2024/02/16 12:46:44;;;;;;;8.40;2.30;;;;;;;16.37;52.65;98625.03;4864826;28;103258;-72
2024/02/16 12:49:12;;;;;;;7.68;2.40;;;;;;;16.64;52.09;98629.56;4865793;28;103360;-76
2024/02/16 12:51:40;;;;;;;7.28;2.00;;;;;;;17.09;51.73;98631.50;4876811;28;102615;-71
2024/02/16 12:54:13;;;;;;;6.78;2.47;;;;;;;16.49;53.10;98627.09;4889355;28;103216;-71
2024/02/16 12:56:44;;;;;;;8.23;2.38;;;;;;;16.45;53.29;98631.22;4883376;28;102923;-71
2024/02/16 12:59:15;;;;;;;8.68;1.80;;;;;;;16.42;53.43;98633.25;4886528;28;102773;-69
2024/02/16 13:01:43;;;;;;;8.30;2.40;;;;;;;16.31;53.69;98631.22;4883512;28;101809;-73
2024/02/16 13:04:11;;;;;;;7.57;2.00;;;;;;;16.21;53.53;98628.97;4874565;28;102210;-69
2024/02/16 13:06:39;;;;;;;12.07;2.22;;;;;;;16.13;53.77;98631.03;4881380;28;102314;-69
2024/02/16 13:09:08;;;;;;;8.35;2.00;;;;;;;16.11;53.27;98619.72;4883232;28;102841;-72
2024/02/16 13:11:36;;;;;;;7.95;2.13;;;;;;;16.27;53.80;98627.34;4888506;28;102391;-75
2024/02/16 13:14:06;;;;;;;7.63;2.10;;;;;;;16.44;53.43;98627.72;4880951;28;102795;-73
2024/02/16 13:16:34;;;;;;;9.70;2.05;;;;;;;16.74;53.25;98627.22;4877211;28;102559;-71
2024/02/16 13:19:04;;;;;;;9.38;2.08;;;;;;;16.63;52.95;98628.72;4884938;28;102357;-69
2024/02/16 13:21:32;;;;;;;7.90;2.13;;;;;;;16.41;53.39;98623.63;4880299;28;101783;-71
2024/02/16 13:24:00;;;;;;;4.35;1.65;;;;;;;16.77;53.10;98628.66;4884266;28;103689;-71
2024/02/16 13:26:30;;;;;;;9.48;1.40;;;;;;;17.10;52.70;98625.91;4882271;28;103132;-67
2024/02/16 13:28:58;;;;;;;13.88;2.47;;;;;;;17.09;52.61;98620.78;4885105;28;102537;-68
2024/02/16 13:31:31;;;;;;;7.25;2.78;;;;;;;16.74;53.58;98633.44;4875711;28;102739;-68
2024/02/16 13:59:13;;;;;;;6.88;2.03;;;;;;;16.58;55.19;98652.56;4848100;28;103047;-68
2024/02/16 14:01:48;;;;;;;14.90;2.10;;;;;;;16.70;55.08;98645.56;4863864;28;104743;-63
2024/02/16 14:04:16;;;;;;;10.20;2.22;;;;;;;16.80;55.10;98653.16;4872787;28;103948;-66
2024/02/16 14:06:45;;;;;;;8.60;2.35;;;;;;;16.50;55.78;98652.81;4871374;28;104603;-66
2024/02/16 14:09:17;;;;;;;12.23;2.30;;;;;;;16.42;56.45;98654.66;4876428;28;103266;-67